Time,TemperatureF,DewpointF,PressureIn,WindDirection,WindDirectionDegrees,WindSpeedMPH,WindSpeedGustMPH,Humidity,HourlyPrecipIn,Conditions,Clouds,dailyrainin,SoftwareType,DateUTC
2013-09-13 00:02:00,60.5,57.9,29.75,East,81,1.0,3.0,91,0.00,,,0.01,Wunderground v.1.15,2013-09-13 04:02:00,
2013-09-13 00:04:00,60.4,57.8,29.75,East,81,1.0,3.0,91,0.00,,,0.00,Wunderground v.1.15,2013-09-13 04:04:00,
2013-09-13 00:10:00,60.2,57.6,29.75,SE,143,1.0,2.0,91,0.00,,,0.00,Wunderground v.1.15,2013-09-13 04:10:00,
2013-09-13 00:16:00,60.1,57.8,29.76,SE,144,1.0,2.0,92,0.00,,,0.00,Wunderground v.1.15,2013-09-13 04:16:00,
2013-09-13 00:22:00,59.8,57.5,29.76,SE,144,0.0,1.0,92,0.00,,,0.00,Wunderground v.1.15,2013-09-13 04:22:00,
2013-09-13 00:28:00,59.7,57.1,29.76,SE,144,0.0,1.0,91,0.00,,,0.00,Wunderground v.1.15,2013-09-13 04:28:00,
2013-09-13 00:30:00,59.7,57.4,29.76,SE,144,0.0,0.0,92,0.00,,,0.00,Wunderground v.1.15,2013-09-13 04:30:00,
2013-09-13 00:36:00,59.7,57.4,29.76,SE,145,0.0,2.0,92,0.00,,,0.00,Wunderground v.1.15,2013-09-13 04:36:00,
2013-09-13 00:42:00,59.5,57.2,29.76,SW,233,1.0,5.0,92,0.00,,,0.00,Wunderground v.1.15,2013-09-13 04:42:00,
2013-09-13 00:48:00,59.4,57.1,29.76,WSW,253,2.0,5.0,92,0.00,,,0.00,Wunderground v.1.15,2013-09-13 04:48:00,
2013-09-13 00:50:00,59.5,57.2,29.76,WSW,253,2.0,2.0,92,0.00,,,0.00,Wunderground v.1.15,2013-09-13 04:50:00,
2013-09-13 00:54:00,59.5,57.2,29.77,SW,232,1.0,3.0,92,0.00,,,0.00,Wunderground v.1.15,2013-09-13 04:54:00,
2013-09-13 01:00:00,59.4,57.1,29.76,SW,232,0.0,0.0,92,0.00,,,0.00,Wunderground v.1.15,2013-09-13 05:00:00,
2013-09-13 01:06:00,59.3,57.0,29.76,SW,232,0.0,0.0,92,0.00,,,0.00,Wunderground v.1.15,2013-09-13 05:06:00,
2013-09-13 01:12:00,59.0,56.7,29.76,WSW,244,0.0,0.0,92,0.00,,,0.00,Wunderground v.1.15,2013-09-13 05:12:00,
2013-09-13 01:18:00,58.8,56.5,29.75,WSW,244,0.0,0.0,92,0.00,,,0.00,Wunderground v.1.15,2013-09-13 05:18:00,
2013-09-13 01:24:00,58.6,56.3,29.76,WSW,244,0.0,2.0,92,0.00,,,0.00,Wunderground v.1.15,2013-09-13 05:24:00,
2013-09-13 01:30:00,58.3,55.7,29.75,WSW,244,0.0,0.0,91,0.00,,,0.00,Wunderground v.1.15,2013-09-13 05:30:00,
2013-09-13 01:36:00,58.0,55.4,29.75,NW,309,0.0,2.0,91,0.00,,,0.00,Wunderground v.1.15,2013-09-13 05:36:00,
2013-09-13 01:42:00,57.7,55.4,29.75,NW,309,0.0,0.0,92,0.00,,,0.00,Wunderground v.1.15,2013-09-13 05:42:00,
2013-09-13 01:48:00,57.4,55.1,29.75,NW,309,1.0,3.0,92,0.00,,,0.00,Wunderground v.1.15,2013-09-13 05:48:00,
2013-09-13 01:54:00,57.2,54.9,29.76,NW,309,1.0,1.0,92,0.00,,,0.00,Wunderground v.1.15,2013-09-13 05:54:00,
2013-09-13 02:00:00,56.7,54.4,29.76,NW,309,0.0,0.0,92,0.00,,,0.00,Wunderground v.1.15,2013-09-13 06:00:00,
2013-09-13 02:06:00,56.3,54.0,29.76,NW,309,0.0,0.0,92,0.00,,,0.00,Wunderground v.1.15,2013-09-13 06:06:00,
2013-09-13 02:12:00,56.2,53.9,29.76,NW,309,0.0,0.0,92,0.00,,,0.00,Wunderground v.1.15,2013-09-13 06:12:00,
2013-09-13 02:18:00,56.1,53.8,29.76,NW,309,0.0,0.0,92,0.00,,,0.00,Wunderground v.1.15,2013-09-13 06:18:00,
2013-09-13 02:24:00,55.9,53.6,29.76,WNW,300,0.0,8.0,92,0.00,,,0.00,Wunderground v.1.15,2013-09-13 06:24:00,
2013-09-13 02:30:00,56.5,54.2,29.76,West,277,2.0,3.0,92,0.00,,,0.00,Wunderground v.1.15,2013-09-13 06:30:00,
2013-09-13 02:36:00,57.6,54.7,29.76,NW,306,5.0,9.0,90,0.00,,,0.00,Wunderground v.1.15,2013-09-13 06:36:00,
2013-09-13 02:42:00,59.0,55.8,29.76,WNW,296,4.0,4.0,89,0.00,,,0.00,Wunderground v.1.15,2013-09-13 06:42:00,
2013-09-13 02:48:00,59.7,56.1,29.76,WNW,289,3.0,8.0,88,0.00,,,0.00,Wunderground v.1.15,2013-09-13 06:48:00,
2013-09-13 02:54:00,60.3,56.4,29.76,NW,305,5.0,9.0,87,0.00,,,0.00,Wunderground v.1.15,2013-09-13 06:54:00,
2013-09-13 03:00:00,61.1,56.9,29.77,NW,322,6.0,11.0,86,0.00,,,0.00,Wunderground v.1.15,2013-09-13 07:00:00,
2013-09-13 03:06:00,61.7,57.5,29.77,NW,306,7.0,11.0,86,0.00,,,0.00,Wunderground v.1.15,2013-09-13 07:06:00,
2013-09-13 03:12:00,62.1,57.5,29.77,WNW,302,7.0,8.0,85,0.00,,,0.00,Wunderground v.1.15,2013-09-13 07:12:00,
2013-09-13 03:18:00,62.1,57.5,29.77,NW,313,5.0,8.0,85,0.00,,,0.00,Wunderground v.1.15,2013-09-13 07:18:00,
2013-09-13 03:24:00,62.2,57.3,29.77,NW,313,4.0,8.0,84,0.00,,,0.00,Wunderground v.1.15,2013-09-13 07:24:00,
2013-09-13 03:30:00,62.2,57.3,29.77,WNW,286,4.0,4.0,84,0.00,,,0.00,Wunderground v.1.15,2013-09-13 07:30:00,
2013-09-13 03:36:00,62.2,57.3,29.77,NW,324,4.0,6.0,84,0.00,,,0.00,Wunderground v.1.15,2013-09-13 07:36:00,
2013-09-13 03:42:00,62.1,57.2,29.76,WNW,299,3.0,5.0,84,0.00,,,0.00,Wunderground v.1.15,2013-09-13 07:42:00,
2013-09-13 03:48:00,62.0,57.1,29.76,NW,317,3.0,5.0,84,0.00,,,0.00,Wunderground v.1.15,2013-09-13 07:48:00,
2013-09-13 03:54:00,61.8,56.9,29.75,North,355,3.0,4.0,84,0.00,,,0.00,Wunderground v.1.15,2013-09-13 07:54:00,
2013-09-13 04:00:00,61.3,56.8,29.75,North,355,2.0,2.0,85,0.00,,,0.00,Wunderground v.1.15,2013-09-13 08:00:00,
2013-09-13 04:06:00,60.9,56.4,29.76,North,355,1.0,2.0,85,0.00,,,0.00,Wunderground v.1.15,2013-09-13 08:06:00,
2013-09-13 04:12:00,60.6,56.4,29.76,North,355,0.0,0.0,86,0.00,,,0.00,Wunderground v.1.15,2013-09-13 08:12:00,
2013-09-13 04:18:00,59.9,55.7,29.75,North,355,0.0,0.0,86,0.00,,,0.00,Wunderground v.1.15,2013-09-13 08:18:00,
2013-09-13 04:24:00,59.0,55.4,29.75,North,355,0.0,0.0,88,0.00,,,0.00,Wunderground v.1.15,2013-09-13 08:24:00,
2013-09-13 04:30:00,58.2,54.7,29.75,North,355,0.0,0.0,88,0.00,,,0.00,Wunderground v.1.15,2013-09-13 08:30:00,
2013-09-13 04:36:00,57.4,54.2,29.75,North,355,0.0,0.0,89,0.00,,,0.00,Wunderground v.1.15,2013-09-13 08:36:00,
2013-09-13 04:42:00,56.8,53.6,29.75,North,355,0.0,0.0,89,0.00,,,0.00,Wunderground v.1.15,2013-09-13 08:42:00,
2013-09-13 04:48:00,56.0,53.1,29.76,North,355,1.0,3.0,90,0.00,,,0.00,Wunderground v.1.15,2013-09-13 08:48:00,
2013-09-13 04:54:00,55.4,52.5,29.75,North,355,1.0,1.0,90,0.00,,,0.00,Wunderground v.1.15,2013-09-13 08:54:00,
2013-09-13 05:00:00,55.0,52.4,29.75,North,355,0.0,0.0,91,0.00,,,0.00,Wunderground v.1.15,2013-09-13 09:00:00,
2013-09-13 05:06:00,54.6,52.0,29.75,North,355,0.0,0.0,91,0.00,,,0.00,Wunderground v.1.15,2013-09-13 09:06:00,
2013-09-13 05:12:00,54.2,51.6,29.75,North,355,0.0,0.0,91,0.00,,,0.00,Wunderground v.1.15,2013-09-13 09:12:00,
2013-09-13 05:18:00,53.9,51.3,29.75,North,355,0.0,0.0,91,0.00,,,0.00,Wunderground v.1.15,2013-09-13 09:18:00,
2013-09-13 05:24:00,53.7,51.1,29.74,North,355,0.0,0.0,91,0.00,,,0.00,Wunderground v.1.15,2013-09-13 09:24:00,
2013-09-13 05:30:00,53.4,51.1,29.74,North,355,0.0,0.0,92,0.00,,,0.00,Wunderground v.1.15,2013-09-13 09:30:00,
2013-09-13 05:36:00,53.1,50.5,29.74,North,355,0.0,2.0,91,0.00,,,0.00,Wunderground v.1.15,2013-09-13 09:36:00,
2013-09-13 05:42:00,52.8,50.5,29.74,North,355,1.0,2.0,92,0.00,,,0.00,Wunderground v.1.15,2013-09-13 09:42:00,
2013-09-13 05:48:00,52.7,50.4,29.74,North,355,1.0,2.0,92,0.00,,,0.00,Wunderground v.1.15,2013-09-13 09:48:00,
2013-09-13 05:54:00,52.5,50.2,29.75,North,355,0.0,1.0,92,0.00,,,0.00,Wunderground v.1.15,2013-09-13 09:54:00,
2013-09-13 06:00:00,52.2,49.9,29.75,North,355,0.0,0.0,92,0.00,,,0.00,Wunderground v.1.15,2013-09-13 10:00:00,
2013-09-13 06:06:00,52.1,49.8,29.76,North,355,0.0,0.0,92,0.00,,,0.00,Wunderground v.1.15,2013-09-13 10:06:00,
2013-09-13 06:12:00,51.9,49.9,29.76,North,355,0.0,0.0,93,0.00,,,0.00,Wunderground v.1.15,2013-09-13 10:12:00,
2013-09-13 06:18:00,51.9,49.9,29.76,North,355,0.0,0.0,93,0.00,,,0.00,Wunderground v.1.15,2013-09-13 10:18:00,
2013-09-13 06:24:00,52.3,50.3,29.77,WSW,247,1.0,4.0,93,0.00,,,0.00,Wunderground v.1.15,2013-09-13 10:24:00,
2013-09-13 06:30:00,52.7,51.0,29.77,SSW,212,2.0,3.0,94,0.00,,,0.00,Wunderground v.1.15,2013-09-13 10:30:00,
2013-09-13 06:36:00,52.8,51.1,29.77,SW,220,1.0,3.0,94,0.00,,,0.00,Wunderground v.1.15,2013-09-13 10:36:00,
2013-09-13 06:42:00,52.8,51.1,29.77,SW,220,0.0,0.0,94,0.00,,,0.00,Wunderground v.1.15,2013-09-13 10:42:00,
2013-09-13 06:48:00,52.7,51.0,29.78,WSW,238,0.0,2.0,94,0.00,,,0.00,Wunderground v.1.15,2013-09-13 10:48:00,
2013-09-13 06:54:00,52.6,50.6,29.78,WSW,238,1.0,1.0,93,0.00,,,0.00,Wunderground v.1.15,2013-09-13 10:54:00,
2013-09-13 07:00:00,52.3,50.3,29.78,WSW,237,0.0,0.0,93,0.00,,,0.00,Wunderground v.1.15,2013-09-13 11:00:00,
2013-09-13 07:06:00,52.5,50.8,29.78,WSW,237,0.0,1.0,94,0.00,,,0.00,Wunderground v.1.15,2013-09-13 11:06:00,
2013-09-13 07:12:00,52.8,51.1,29.78,WSW,237,1.0,3.0,94,0.00,,,0.00,Wunderground v.1.15,2013-09-13 11:12:00,
2013-09-13 07:18:00,52.8,51.1,29.78,WSW,237,1.0,3.0,94,0.00,,,0.00,Wunderground v.1.15,2013-09-13 11:18:00,
2013-09-13 07:24:00,52.7,51.0,29.79,WSW,237,1.0,2.0,94,0.00,,,0.00,Wunderground v.1.15,2013-09-13 11:24:00,
2013-09-13 07:30:00,52.8,51.1,29.79,SW,236,1.0,1.0,94,0.00,,,0.00,Wunderground v.1.15,2013-09-13 11:30:00,
2013-09-13 07:36:00,53.2,51.5,29.79,SW,236,0.0,2.0,94,0.00,,,0.00,Wunderground v.1.15,2013-09-13 11:36:00,
2013-09-13 07:42:00,53.8,52.1,29.80,SW,236,1.0,1.0,94,0.00,,,0.00,Wunderground v.1.15,2013-09-13 11:42:00,
2013-09-13 07:48:00,54.3,52.9,29.80,WSW,241,1.0,1.0,95,0.00,,,0.00,Wunderground v.1.15,2013-09-13 11:48:00,
2013-09-13 07:54:00,54.5,52.8,29.80,SW,233,1.0,2.0,94,0.00,,,0.00,Wunderground v.1.15,2013-09-13 11:54:00,
2013-09-13 08:00:00,55.2,53.5,29.80,SSW,198,2.0,2.0,94,0.00,,,0.00,Wunderground v.1.15,2013-09-13 12:00:00,
2013-09-13 08:06:00,55.3,53.0,29.80,WSW,240,3.0,6.0,92,0.00,,,0.00,Wunderground v.1.15,2013-09-13 12:06:00,
2013-09-13 08:12:00,56.2,53.3,29.80,SW,233,3.0,4.0,90,0.00,,,0.00,Wunderground v.1.15,2013-09-13 12:12:00,
2013-09-13 08:18:00,58.7,54.5,29.80,WNW,285,5.0,14.0,86,0.00,,,0.00,Wunderground v.1.15,2013-09-13 12:18:00,
2013-09-13 08:24:00,59.8,55.3,29.80,West,280,6.0,9.0,85,0.00,,,0.00,Wunderground v.1.15,2013-09-13 12:24:00,
2013-09-13 08:30:00,60.7,55.5,29.81,WSW,254,6.0,7.0,83,0.00,,,0.00,Wunderground v.1.15,2013-09-13 12:30:00,
2013-09-13 08:36:00,60.9,55.4,29.81,WSW,251,7.0,8.0,82,0.00,,,0.00,Wunderground v.1.15,2013-09-13 12:36:00,
2013-09-13 08:42:00,61.2,55.3,29.80,WNW,284,8.0,9.0,81,0.00,,,0.00,Wunderground v.1.15,2013-09-13 12:42:00,
2013-09-13 08:48:00,61.9,56.0,29.80,WNW,292,7.0,9.0,81,0.00,,,0.00,Wunderground v.1.15,2013-09-13 12:48:00,
2013-09-13 08:54:00,62.4,55.8,29.80,WNW,290,4.0,5.0,79,0.00,,,0.00,Wunderground v.1.15,2013-09-13 12:54:00,
2013-09-13 09:00:00,62.9,55.6,29.80,WSW,254,4.0,4.0,77,0.00,,,0.00,Wunderground v.1.15,2013-09-13 13:00:00,
2013-09-13 09:06:00,63.0,55.7,29.81,West,277,4.0,7.0,77,0.00,,,0.00,Wunderground v.1.15,2013-09-13 13:06:00,
2013-09-13 09:12:00,62.3,55.0,29.81,WNW,298,7.0,13.0,77,0.00,,,0.00,Wunderground v.1.15,2013-09-13 13:12:00,
2013-09-13 09:18:00,61.8,54.5,29.81,NW,311,7.0,13.0,77,0.00,,,0.00,Wunderground v.1.15,2013-09-13 13:18:00,
2013-09-13 09:24:00,61.3,54.7,29.81,WNW,300,6.0,8.0,79,0.00,,,0.00,Wunderground v.1.15,2013-09-13 13:24:00,
2013-09-13 09:30:00,62.2,55.3,29.81,WNW,284,5.0,5.0,78,0.00,,,0.00,Wunderground v.1.15,2013-09-13 13:30:00,
2013-09-13 09:36:00,63.0,54.9,29.81,NW,313,5.0,8.0,75,0.00,,,0.00,Wunderground v.1.15,2013-09-13 13:36:00,
2013-09-13 09:42:00,63.4,56.1,29.81,WNW,284,6.0,10.0,77,0.00,,,0.00,Wunderground v.1.15,2013-09-13 13:42:00,
2013-09-13 09:48:00,63.5,54.7,29.81,NNW,340,7.0,11.0,73,0.00,,,0.00,Wunderground v.1.15,2013-09-13 13:48:00,
2013-09-13 09:54:00,63.5,54.7,29.81,WNW,299,9.0,9.0,73,0.00,,,0.00,Wunderground v.1.15,2013-09-13 13:54:00,
2013-09-13 10:00:00,63.7,55.6,29.81,West,281,6.0,6.0,75,0.00,,,0.00,Wunderground v.1.15,2013-09-13 14:00:00,
2013-09-13 10:06:00,64.1,56.0,29.82,NW,319,5.0,10.0,75,0.00,,,0.00,Wunderground v.1.15,2013-09-13 14:06:00,
2013-09-13 10:12:00,64.3,55.1,29.82,West,281,6.0,7.0,72,0.00,,,0.00,Wunderground v.1.15,2013-09-13 14:12:00,
2013-09-13 10:18:00,64.1,54.9,29.82,NW,315,7.0,7.0,72,0.00,,,0.00,Wunderground v.1.15,2013-09-13 14:18:00,
2013-09-13 10:24:00,64.9,55.3,29.82,WNW,288,6.0,8.0,71,0.00,,,0.00,Wunderground v.1.15,2013-09-13 14:24:00,
2013-09-13 10:30:00,64.4,54.0,29.82,WNW,298,8.0,10.0,69,0.00,,,0.00,Wunderground v.1.15,2013-09-13 14:30:00,
2013-09-13 10:36:00,63.1,53.2,29.82,NW,308,9.0,11.0,70,0.00,,,0.00,Wunderground v.1.15,2013-09-13 14:36:00,
2013-09-13 10:42:00,62.5,53.7,29.82,WNW,298,8.0,8.0,73,0.00,,,0.00,Wunderground v.1.15,2013-09-13 14:42:00,
2013-09-13 10:48:00,62.5,54.1,29.82,NW,317,6.0,8.0,74,0.00,,,0.00,Wunderground v.1.15,2013-09-13 14:48:00,
2013-09-13 10:54:00,62.6,53.8,29.82,North,350,5.0,6.0,73,0.00,,,0.00,Wunderground v.1.15,2013-09-13 14:54:00,
2013-09-13 11:00:00,63.2,55.1,29.82,NNW,331,4.0,6.0,75,0.00,,,0.00,Wunderground v.1.15,2013-09-13 15:00:00,
2013-09-13 11:06:00,63.7,54.9,29.82,North,9,5.0,11.0,73,0.00,,,0.00,Wunderground v.1.15,2013-09-13 15:06:00,
2013-09-13 11:12:00,64.5,54.9,29.82,NNW,329,7.0,8.0,71,0.00,,,0.00,Wunderground v.1.15,2013-09-13 15:12:00,
2013-09-13 11:18:00,64.5,55.3,29.82,WNW,295,6.0,8.0,72,0.00,,,0.00,Wunderground v.1.15,2013-09-13 15:18:00,
2013-09-13 11:24:00,64.4,54.4,29.82,WNW,298,5.0,10.0,70,0.00,,,0.00,Wunderground v.1.15,2013-09-13 15:24:00,
2013-09-13 11:30:00,64.6,55.0,29.82,WNW,302,7.0,12.0,71,0.00,,,0.00,Wunderground v.1.15,2013-09-13 15:30:00,
2013-09-13 11:36:00,64.4,53.6,29.82,WSW,238,8.0,12.0,68,0.00,,,0.00,Wunderground v.1.15,2013-09-13 15:36:00,
2013-09-13 11:42:00,64.6,55.0,29.82,WNW,297,8.0,10.0,71,0.00,,,0.00,Wunderground v.1.15,2013-09-13 15:42:00,
2013-09-13 11:48:00,64.3,54.7,29.82,NW,318,7.0,10.0,71,0.00,,,0.00,Wunderground v.1.15,2013-09-13 15:48:00,
2013-09-13 11:54:00,64.7,55.5,29.82,NW,315,4.0,6.0,72,0.00,,,0.00,Wunderground v.1.15,2013-09-13 15:54:00,
2013-09-13 12:00:00,64.5,54.9,29.82,WNW,288,5.0,10.0,71,0.00,,,0.00,Wunderground v.1.15,2013-09-13 16:00:00,
2013-09-13 12:06:00,63.9,54.3,29.82,WNW,298,7.0,10.0,71,0.00,,,0.00,Wunderground v.1.15,2013-09-13 16:06:00,
2013-09-13 12:12:00,64.3,55.1,29.82,West,280,6.0,10.0,72,0.00,,,0.00,Wunderground v.1.15,2013-09-13 16:12:00,
2013-09-13 12:18:00,64.6,55.0,29.82,NW,319,6.0,10.0,71,0.00,,,0.00,Wunderground v.1.15,2013-09-13 16:18:00,
2013-09-13 12:24:00,65.2,54.4,29.82,WSW,247,8.0,13.0,68,0.00,,,0.00,Wunderground v.1.15,2013-09-13 16:24:00,
2013-09-13 12:30:00,65.6,54.3,29.82,WNW,298,8.0,9.0,67,0.00,,,0.00,Wunderground v.1.15,2013-09-13 16:30:00,
2013-09-13 12:36:00,66.3,55.4,29.81,West,273,7.0,9.0,68,0.00,,,0.00,Wunderground v.1.15,2013-09-13 16:36:00,
2013-09-13 12:42:00,66.7,54.6,29.81,NW,311,6.0,7.0,65,0.00,,,0.00,Wunderground v.1.15,2013-09-13 16:42:00,
2013-09-13 12:48:00,66.6,54.0,29.81,North,355,5.0,7.0,64,0.00,,,0.00,Wunderground v.1.15,2013-09-13 16:48:00,
2013-09-13 12:54:00,65.9,54.2,29.81,WNW,293,4.0,4.0,66,0.00,,,0.00,Wunderground v.1.15,2013-09-13 16:54:00,
2013-09-13 13:00:00,65.4,54.2,29.81,WNW,283,6.0,9.0,67,0.00,,,0.00,Wunderground v.1.15,2013-09-13 17:00:00,
2013-09-13 13:06:00,65.7,54.8,29.81,WNW,288,7.0,9.0,68,0.00,,,0.00,Wunderground v.1.15,2013-09-13 17:06:00,
2013-09-13 13:12:00,65.5,55.1,29.81,West,269,6.0,7.0,69,0.00,,,0.00,Wunderground v.1.15,2013-09-13 17:12:00,
2013-09-13 13:18:00,64.3,55.5,29.81,West,277,7.0,8.0,73,0.00,,,0.00,Wunderground v.1.15,2013-09-13 17:18:00,
2013-09-13 13:24:00,63.6,55.9,29.81,West,280,7.0,9.0,76,0.00,,,0.00,Wunderground v.1.15,2013-09-13 17:24:00,
2013-09-13 13:30:00,63.1,55.4,29.81,WNW,295,7.0,9.0,76,0.00,,,0.00,Wunderground v.1.15,2013-09-13 17:30:00,
2013-09-13 13:36:00,63.1,55.8,29.81,West,265,7.0,9.0,77,0.00,,,0.00,Wunderground v.1.15,2013-09-13 17:36:00,
2013-09-13 13:42:00,63.1,55.8,29.82,WNW,284,7.0,9.0,77,0.00,,,0.00,Wunderground v.1.15,2013-09-13 17:42:00,
2013-09-13 13:48:00,62.1,55.2,29.82,WNW,289,8.0,9.0,78,0.00,,,0.00,Wunderground v.1.15,2013-09-13 17:48:00,
2013-09-13 13:54:00,61.4,55.5,29.82,WNW,284,6.0,8.0,81,0.00,,,0.00,Wunderground v.1.15,2013-09-13 17:54:00,
2013-09-13 14:00:00,61.2,55.3,29.82,WNW,298,4.0,4.0,81,0.00,,,0.00,Wunderground v.1.15,2013-09-13 18:00:00,
2013-09-13 14:06:00,61.5,56.3,29.82,WNW,298,3.0,7.0,83,0.00,,,0.00,Wunderground v.1.15,2013-09-13 18:06:00,
2013-09-13 14:12:00,61.8,54.9,29.82,NW,316,5.0,13.0,78,0.00,,,0.00,Wunderground v.1.15,2013-09-13 18:12:00,
2013-09-13 14:18:00,62.0,55.4,29.82,North,360,8.0,13.0,79,0.00,,,0.00,Wunderground v.1.15,2013-09-13 18:18:00,
2013-09-13 14:24:00,61.9,55.0,29.83,North,5,8.0,10.0,78,0.00,,,0.00,Wunderground v.1.15,2013-09-13 18:24:00,
2013-09-13 14:30:00,60.9,54.0,29.83,NNW,331,9.0,9.0,78,0.00,,,0.00,Wunderground v.1.15,2013-09-13 18:30:00,
2013-09-13 14:36:00,60.2,54.0,29.83,NNW,339,7.0,12.0,80,0.00,,,0.00,Wunderground v.1.15,2013-09-13 18:36:00,
2013-09-13 14:42:00,60.2,53.3,29.83,NNW,341,6.0,6.0,78,0.00,,,0.00,Wunderground v.1.15,2013-09-13 18:42:00,
2013-09-13 14:48:00,60.6,53.7,29.83,North,355,6.0,7.0,78,0.00,,,0.00,Wunderground v.1.15,2013-09-13 18:48:00,
2013-09-13 14:54:00,61.0,53.7,29.83,NE,34,5.0,6.0,77,0.00,,,0.00,Wunderground v.1.15,2013-09-13 18:54:00,
2013-09-13 15:00:00,60.8,53.5,29.83,NNW,338,5.0,5.0,77,0.00,,,0.00,Wunderground v.1.15,2013-09-13 19:00:00,
2013-09-13 15:06:00,61.1,54.5,29.83,NNW,338,4.0,5.0,79,0.00,,,0.00,Wunderground v.1.15,2013-09-13 19:06:00,
2013-09-13 15:12:00,61.7,55.1,29.83,NNW,337,4.0,4.0,79,0.00,,,0.00,Wunderground v.1.15,2013-09-13 19:12:00,
2013-09-13 15:18:00,62.0,54.0,29.83,NNW,327,4.0,8.0,75,0.00,,,0.00,Wunderground v.1.15,2013-09-13 19:18:00,
2013-09-13 15:24:00,61.9,53.5,29.84,NNW,337,6.0,13.0,74,0.00,,,0.00,Wunderground v.1.15,2013-09-13 19:24:00,
2013-09-13 15:30:00,60.5,52.2,29.84,NNE,25,11.0,11.0,74,0.00,,,0.00,Wunderground v.1.15,2013-09-13 19:30:00,
2013-09-13 15:36:00,60.4,53.2,29.84,NNE,16,9.0,11.0,77,0.00,,,0.00,Wunderground v.1.15,2013-09-13 19:36:00,
2013-09-13 15:42:00,61.6,53.2,29.83,NNW,345,8.0,8.0,74,0.00,,,0.00,Wunderground v.1.15,2013-09-13 19:42:00,
2013-09-13 15:48:00,62.3,54.3,29.84,NNE,24,6.0,10.0,75,0.00,,,0.00,Wunderground v.1.15,2013-09-13 19:48:00,
2013-09-13 15:54:00,62.0,53.2,29.84,NW,317,7.0,10.0,73,0.00,,,0.00,Wunderground v.1.15,2013-09-13 19:54:00,
2013-09-13 16:00:00,61.9,53.5,29.84,NW,318,6.0,6.0,74,0.00,,,0.00,Wunderground v.1.15,2013-09-13 20:00:00,
2013-09-13 16:06:00,62.1,52.6,29.84,WNW,296,6.0,11.0,71,0.00,,,0.00,Wunderground v.1.15,2013-09-13 20:06:00,
2013-09-13 16:12:00,62.3,53.5,29.84,North,5,6.0,6.0,73,0.00,,,0.00,Wunderground v.1.15,2013-09-13 20:12:00,
2013-09-13 16:18:00,62.8,53.6,29.84,NW,326,4.0,6.0,72,0.00,,,0.00,Wunderground v.1.15,2013-09-13 20:18:00,
2013-09-13 16:24:00,63.0,53.8,29.84,NW,313,5.0,10.0,72,0.00,,,0.00,Wunderground v.1.15,2013-09-13 20:24:00,
2013-09-13 16:30:00,63.2,53.6,29.84,NW,304,6.0,6.0,71,0.00,,,0.00,Wunderground v.1.15,2013-09-13 20:30:00,
2013-09-13 16:36:00,63.1,53.5,29.84,North,355,5.0,6.0,71,0.00,,,0.00,Wunderground v.1.15,2013-09-13 20:36:00,
2013-09-13 16:42:00,62.5,51.8,29.84,North,355,5.0,10.0,68,0.00,,,0.00,Wunderground v.1.15,2013-09-13 20:42:00,
2013-09-13 16:48:00,62.0,52.5,29.85,WNW,284,7.0,10.0,71,0.00,,,0.00,Wunderground v.1.15,2013-09-13 20:48:00,
2013-09-13 16:54:00,61.4,51.9,29.85,WNW,286,7.0,10.0,71,0.00,,,0.00,Wunderground v.1.15,2013-09-13 20:54:00,
2013-09-13 17:00:00,60.9,52.2,29.86,NW,307,7.0,7.0,73,0.00,,,0.00,Wunderground v.1.15,2013-09-13 21:00:00,
2013-09-13 17:06:00,60.5,52.2,29.86,WNW,283,6.0,10.0,74,0.00,,,0.00,Wunderground v.1.15,2013-09-13 21:06:00,
2013-09-13 17:12:00,60.3,52.3,29.86,WNW,284,5.0,9.0,75,0.00,,,0.00,Wunderground v.1.15,2013-09-13 21:12:00,
2013-09-13 17:18:00,60.0,52.4,29.86,NW,307,5.0,9.0,76,0.00,,,0.00,Wunderground v.1.15,2013-09-13 21:18:00,
2013-09-13 17:24:00,60.3,52.0,29.87,WNW,287,4.0,6.0,74,0.00,,,0.00,Wunderground v.1.15,2013-09-13 21:24:00,
2013-09-13 17:30:00,60.0,52.1,29.87,West,262,3.0,3.0,75,0.00,,,0.00,Wunderground v.1.15,2013-09-13 21:30:00,
2013-09-13 17:36:00,59.8,51.9,29.88,West,279,3.0,6.0,75,0.00,,,0.00,Wunderground v.1.15,2013-09-13 21:36:00,
2013-09-13 17:42:00,59.3,51.0,29.88,NNW,348,4.0,8.0,74,0.00,,,0.00,Wunderground v.1.15,2013-09-13 21:42:00,
2013-09-13 17:48:00,59.6,51.3,29.88,NW,305,4.0,8.0,74,0.00,,,0.00,Wunderground v.1.15,2013-09-13 21:48:00,
2013-09-13 17:54:00,59.5,51.9,29.88,NNW,348,3.0,8.0,76,0.00,,,0.00,Wunderground v.1.15,2013-09-13 21:54:00,
2013-09-13 18:00:00,59.3,52.1,29.88,NW,309,5.0,9.0,77,0.00,,,0.00,Wunderground v.1.15,2013-09-13 22:00:00,
2013-09-13 18:06:00,59.4,51.5,29.88,NW,313,6.0,9.0,75,0.00,,,0.00,Wunderground v.1.15,2013-09-13 22:06:00,
2013-09-13 18:12:00,59.8,52.2,29.88,NNW,341,5.0,5.0,76,0.00,,,0.00,Wunderground v.1.15,2013-09-13 22:12:00,
2013-09-13 18:18:00,59.7,51.8,29.88,WNW,286,4.0,9.0,75,0.00,,,0.00,Wunderground v.1.15,2013-09-13 22:18:00,
2013-09-13 18:24:00,59.5,52.3,29.88,NW,324,5.0,8.0,77,0.00,,,0.00,Wunderground v.1.15,2013-09-13 22:24:00,
2013-09-13 18:30:00,59.6,52.0,29.88,NNW,338,5.0,8.0,76,0.00,,,0.00,Wunderground v.1.15,2013-09-13 22:30:00,
2013-09-13 18:36:00,59.4,52.2,29.88,NW,320,5.0,8.0,77,0.00,,,0.00,Wunderground v.1.15,2013-09-13 22:36:00,
2013-09-13 18:42:00,59.3,52.1,29.88,WNW,299,5.0,5.0,77,0.00,,,0.00,Wunderground v.1.15,2013-09-13 22:42:00,
2013-09-13 18:48:00,59.1,51.9,29.88,NW,311,4.0,5.0,77,0.00,,,0.00,Wunderground v.1.15,2013-09-13 22:48:00,
2013-09-13 18:54:00,58.9,52.1,29.89,NW,311,2.0,4.0,78,0.00,,,0.00,Wunderground v.1.15,2013-09-13 22:54:00,
2013-09-13 19:00:00,58.9,51.7,29.89,NW,311,1.0,1.0,77,0.00,,,0.00,Wunderground v.1.15,2013-09-13 23:00:00,
2013-09-13 19:06:00,58.8,52.0,29.89,NW,315,1.0,3.0,78,0.00,,,0.00,Wunderground v.1.15,2013-09-13 23:06:00,
2013-09-13 19:12:00,58.7,51.9,29.89,WNW,301,2.0,3.0,78,0.00,,,0.00,Wunderground v.1.15,2013-09-13 23:12:00,
2013-09-13 19:18:00,58.6,51.8,29.89,WNW,298,3.0,6.0,78,0.00,,,0.00,Wunderground v.1.15,2013-09-13 23:18:00,
2013-09-13 19:24:00,58.5,51.0,29.89,WNW,302,3.0,7.0,76,0.00,,,0.00,Wunderground v.1.15,2013-09-13 23:24:00,
2013-09-13 19:30:00,58.1,50.9,29.89,NNW,337,4.0,4.0,77,0.00,,,0.00,Wunderground v.1.15,2013-09-13 23:30:00,
2013-09-13 19:36:00,57.7,50.5,29.89,NNW,337,3.0,4.0,77,0.00,,,0.00,Wunderground v.1.15,2013-09-13 23:36:00,
2013-09-13 19:42:00,57.4,50.2,29.90,NNE,13,2.0,3.0,77,0.00,,,0.00,Wunderground v.1.15,2013-09-13 23:42:00,
2013-09-13 19:48:00,57.1,49.6,29.90,NW,304,4.0,5.0,76,0.00,,,0.00,Wunderground v.1.15,2013-09-13 23:48:00,
2013-09-13 19:54:00,56.9,49.8,29.91,NW,319,4.0,6.0,77,0.00,,,0.00,Wunderground v.1.15,2013-09-13 23:54:00,
2013-09-13 20:00:00,56.8,49.7,29.91,NW,319,5.0,5.0,77,0.00,,,0.00,Wunderground v.1.15,2013-09-14 00:00:00,
2013-09-13 20:06:00,56.8,50.0,29.92,North,350,5.0,9.0,78,0.00,,,0.00,Wunderground v.1.15,2013-09-14 00:06:00,
2013-09-13 20:12:00,56.7,49.6,29.92,NW,323,5.0,8.0,77,0.00,,,0.00,Wunderground v.1.15,2013-09-14 00:12:00,
2013-09-13 20:18:00,56.4,49.3,29.92,NW,325,5.0,8.0,77,0.00,,,0.00,Wunderground v.1.15,2013-09-14 00:18:00,
2013-09-13 20:24:00,56.0,49.2,29.92,NW,313,4.0,8.0,78,0.00,,,0.00,Wunderground v.1.15,2013-09-14 00:24:00,
2013-09-13 20:30:00,55.9,48.8,29.93,NW,323,6.0,6.0,77,0.00,,,0.00,Wunderground v.1.15,2013-09-14 00:30:00,
2013-09-13 20:36:00,56.0,48.9,29.93,NNW,340,7.0,7.0,77,0.00,,,0.00,Wunderground v.1.15,2013-09-14 00:36:00,
2013-09-13 20:42:00,55.8,49.0,29.94,North,5,5.0,11.0,78,0.00,,,0.00,Wunderground v.1.15,2013-09-14 00:42:00,
2013-09-13 20:48:00,55.3,48.6,29.94,NNE,28,6.0,11.0,78,0.00,,,0.00,Wunderground v.1.15,2013-09-14 00:48:00,
2013-09-13 20:54:00,54.9,48.2,29.94,NNE,14,6.0,7.0,78,0.00,,,0.00,Wunderground v.1.15,2013-09-14 00:54:00,
2013-09-13 21:00:00,54.6,47.9,29.94,North,360,5.0,5.0,78,0.00,,,0.00,Wunderground v.1.15,2013-09-14 01:00:00,
2013-09-13 21:06:00,54.2,47.5,29.94,North,9,4.0,5.0,78,0.00,,,0.00,Wunderground v.1.15,2013-09-14 01:06:00,
2013-09-13 21:12:00,54.1,47.7,29.95,North,9,2.0,2.0,79,0.00,,,0.00,Wunderground v.1.15,2013-09-14 01:12:00,
2013-09-13 21:18:00,53.6,47.2,29.95,NNW,336,1.0,8.0,79,0.00,,,0.00,Wunderground v.1.15,2013-09-14 01:18:00,
2013-09-13 21:24:00,53.6,47.2,29.95,NNW,339,4.0,5.0,79,0.00,,,0.00,Wunderground v.1.15,2013-09-14 01:24:00,
2013-09-13 21:30:00,53.5,47.1,29.95,NW,320,4.0,4.0,79,0.00,,,0.00,Wunderground v.1.15,2013-09-14 01:30:00,
2013-09-13 21:36:00,53.2,47.2,29.95,NW,325,3.0,5.0,80,0.00,,,0.00,Wunderground v.1.15,2013-09-14 01:36:00,
2013-09-13 21:42:00,52.9,47.2,29.96,WNW,302,3.0,3.0,81,0.00,,,0.00,Wunderground v.1.15,2013-09-14 01:42:00,
2013-09-13 21:48:00,52.5,46.8,29.96,NW,304,3.0,4.0,81,0.00,,,0.00,Wunderground v.1.15,2013-09-14 01:48:00,
2013-09-13 21:54:00,52.3,46.6,29.96,WNW,299,4.0,8.0,81,0.00,,,0.00,Wunderground v.1.15,2013-09-14 01:54:00,
2013-09-13 22:00:00,52.4,46.7,29.96,NW,310,5.0,8.0,81,0.00,,,0.00,Wunderground v.1.15,2013-09-14 02:00:00,
2013-09-13 22:06:00,52.6,46.6,29.96,NW,319,6.0,9.0,80,0.00,,,0.00,Wunderground v.1.15,2013-09-14 02:06:00,
2013-09-13 22:12:00,52.6,46.6,29.96,NNW,329,5.0,6.0,80,0.00,,,0.00,Wunderground v.1.15,2013-09-14 02:12:00,
2013-09-13 22:18:00,52.4,46.4,29.96,NNW,327,4.0,6.0,80,0.00,,,0.00,Wunderground v.1.15,2013-09-14 02:18:00,
2013-09-13 22:24:00,52.1,46.4,29.97,NW,321,3.0,4.0,81,0.00,,,0.00,Wunderground v.1.15,2013-09-14 02:24:00,
2013-09-13 22:30:00,51.7,46.4,29.97,NW,321,1.0,2.0,82,0.00,,,0.00,Wunderground v.1.15,2013-09-14 02:30:00,
2013-09-13 22:36:00,51.4,46.1,29.97,NNW,331,2.0,5.0,82,0.00,,,0.00,Wunderground v.1.15,2013-09-14 02:36:00,
2013-09-13 22:42:00,51.2,46.2,29.97,NNW,331,1.0,1.0,83,0.00,,,0.00,Wunderground v.1.15,2013-09-14 02:42:00,
2013-09-13 22:48:00,51.0,46.0,29.98,NNW,332,1.0,1.0,83,0.00,,,0.00,Wunderground v.1.15,2013-09-14 02:48:00,
2013-09-13 22:54:00,50.8,45.8,29.97,NW,313,2.0,4.0,83,0.00,,,0.00,Wunderground v.1.15,2013-09-14 02:54:00,
2013-09-13 23:00:00,50.7,45.7,29.97,NW,324,2.0,2.0,83,0.00,,,0.00,Wunderground v.1.15,2013-09-14 03:00:00,
2013-09-13 23:06:00,50.6,45.9,29.97,NW,324,2.0,3.0,84,0.00,,,0.00,Wunderground v.1.15,2013-09-14 03:06:00,
2013-09-13 23:12:00,50.3,45.6,29.98,NW,324,0.0,0.0,84,0.00,,,0.00,Wunderground v.1.15,2013-09-14 03:12:00,
2013-09-13 23:18:00,50.1,45.5,29.98,WNW,302,1.0,1.0,84,0.00,,,0.00,Wunderground v.1.15,2013-09-14 03:18:00,
2013-09-13 23:24:00,49.7,45.4,29.98,WNW,302,0.0,1.0,85,0.00,,,0.00,Wunderground v.1.15,2013-09-14 03:24:00,
2013-09-13 23:30:00,49.2,44.6,29.98,WNW,302,0.0,0.0,84,0.00,,,0.00,Wunderground v.1.15,2013-09-14 03:30:00,
2013-09-13 23:36:00,48.6,44.3,29.98,WNW,302,1.0,1.0,85,0.00,,,0.00,Wunderground v.1.15,2013-09-14 03:36:00,
2013-09-13 23:42:00,48.5,44.5,29.98,NW,319,1.0,1.0,86,0.00,,,0.00,Wunderground v.1.15,2013-09-14 03:42:00,
2013-09-13 23:48:00,48.2,44.5,29.98,NW,319,1.0,1.0,87,0.00,,,0.00,Wunderground v.1.15,2013-09-14 03:48:00,
2013-09-13 23:54:00,47.7,44.0,29.98,NW,320,0.0,0.0,87,0.00,,,0.00,Wunderground v.1.15,2013-09-14 03:54:00,